New Kingstown, PA (17072)

2:31 PM EDT on September 29, 2016 (GMT -0400)
Hawks Landing | | Change Station

Elev 423 ft 40.28 °N, 77.00 °W | Updated 16 seconds ago

Overcast
Overcast
60.0 °F
Feels Like 60.0 °F
N
5.0
Wind Variable Wind from ESE

Today
High -- | Low -- °F
--% Chance of Precip.
Yesterday
High -- | Low -- °F
Precip. -- in
Pressure 30.24 in
Visibility 10.0 miles
Clouds Overcast 1200 ft
Dew Point 59 °F
Humidity 98%
Rainfall 0.00 in
Snow Depth Not available.
7:02 AM 6:52 PM
Waning Crescent, 1% visible
METAR KCXY 291756Z 11017G24KT 10SM OVC012 17/14 A3024 RMK AO2 SLP240 60033 T01720144 10172 20156 51003
Pressure 30.24 in
Visibility 10.0 miles
Clouds Overcast 1200 ft
Dew Point 59 °F
Humidity 98%
Rainfall 0.00 in
Snow Depth Not available.
7:02 AM 6:52 PM
Waning Crescent, 1% visible
METAR KCXY 291756Z 11017G24KT 10SM OVC012 17/14 A3024 RMK AO2 SLP240 60033 T01720144 10172 20156 51003

10-Day Weather Forecast

Almanac

Astronomy

Sep. 29, 2016 Rise Set
Actual Time
Civil Twilight
Nautical Twilight
Astronomical Twilight
Moon
Length of Visible Light
Length of Day
Tomorrow will be .
, % of the Moon is Illuminated

Today's Extremes

State Highs State Lows

Community

WunderPhotos

Upload Photos

1,942,545 photos uploaded!

WunderBlog® & News

Nearby

Air Quality

  Air Quality AQ Index Pollutant
Not available.

Snow Depth

Station Depth Elevation

Earthquake Activity

City Distance Mag. Time & Date
Minimum magnitude displayed is 2.5.

Coastal Water Temperatures

Place Temperature

Stations

Nearby Weather Stations

Station Location Temp. Windchill Dew Point Humidity Wind Precip. Elev Updated Type
                   

Watches & Warnings

There are currently no watches in effect.